Time;durP1;ratioP1;P1;durP2;ratioP2;P2;SDS_P1;SDS_P2;PMS_P1;PMS_P2;Temp;Humidity;BMP_temperature;BMP_pressure;BME280_temperature;BME280_humidity;BME280_pressure;Samples;Min_cycle;Max_cycle;Signal;HPM_P1;HPM_P2
2021/11/11 00:02:24;;;;;;;46.72;25.00;;;;;;;;;;4919180;29;20035;-93
2021/11/11 00:04:50;;;;;;;39.55;24.20;;;;;;;;;;4907454;29;20126;-93
2021/11/11 00:07:16;;;;;;;39.83;24.27;;;;;;;;;;4921839;29;20553;-92
2021/11/11 00:09:42;;;;;;;40.58;24.40;;;;;;;;;;4906882;29;20123;-88
2021/11/11 00:12:09;;;;;;;43.60;25.83;;;;;;;;;;4898990;29;20040;-89
2021/11/11 00:14:35;;;;;;;40.45;23.48;;;;;;;;;;4899188;29;20025;-89
2021/11/11 00:17:01;;;;;;;43.00;24.30;;;;;;;;;;4884639;29;20127;-91
2021/11/11 00:19:28;;;;;;;41.10;23.52;;;;;;;;;;4884248;29;20402;-90
2021/11/11 00:21:54;;;;;;;40.67;23.38;;;;;;;;;;4900678;29;20487;-91
2021/11/11 00:24:20;;;;;;;40.90;23.60;;;;;;;;;;4905019;29;20035;-90
2021/11/11 00:26:47;;;;;;;40.53;22.98;;;;;;;;;;4911801;29;20107;-91
2021/11/11 00:29:13;;;;;;;40.22;23.38;;;;;;;;;;4891419;29;20081;-90
2021/11/11 00:31:39;;;;;;;38.05;24.45;;;;;;;;;;4911986;29;20047;-90
2021/11/11 00:34:05;;;;;;;38.30;23.40;;;;;;;;;;4900199;29;20024;-90
2021/11/11 00:36:35;;;;;;;41.05;23.73;;;;;;;;;;4900133;29;20033;-92
2021/11/11 00:39:01;;;;;;;37.17;22.10;;;;;;;;;;4899782;29;20032;-90
2021/11/11 00:41:27;;;;;;;37.65;23.27;;;;;;;;;;4902422;29;20383;-92
2021/11/11 00:43:53;;;;;;;45.25;23.48;;;;;;;;;;4917221;29;20028;-90
2021/11/11 00:46:19;;;;;;;39.83;22.92;;;;;;;;;;4899198;29;20048;-91
2021/11/11 00:48:45;;;;;;;34.38;22.75;;;;;;;;;;4899024;29;20128;-91
2021/11/11 00:51:11;;;;;;;35.13;21.80;;;;;;;;;;4900666;29;20084;-92
2021/11/11 00:53:37;;;;;;;40.22;24.25;;;;;;;;;;4903380;29;20072;-93
2021/11/11 00:56:04;;;;;;;39.80;24.88;;;;;;;;;;4918412;29;20059;-91
2021/11/11 00:58:30;;;;;;;43.13;26.48;;;;;;;;;;4909541;29;20495;-89
2021/11/11 01:01:01;;;;;;;41.60;25.40;;;;;;;;;;4901167;29;20064;-91
2021/11/11 01:03:33;;;;;;;46.38;26.40;;;;;;;;;;4891234;29;20367;-90
2021/11/11 01:05:59;;;;;;;;;;;;;;;;;;4893168;29;20044;-90
2021/11/11 01:08:29;;;;;;;47.47;26.85;;;;;;;;;;4898804;29;19911;-91
2021/11/11 01:10:55;;;;;;;50.78;28.52;;;;;;;;;;4898621;29;20123;-90
2021/11/11 01:13:30;;;;;;;50.38;27.90;;;;;;;;;;4900020;29;20092;-91
2021/11/11 01:15:57;;;;;;;48.92;27.77;;;;;;;;;;4883167;29;20141;-90
2021/11/11 01:18:23;;;;;;;48.55;27.38;;;;;;;;;;4899917;29;20063;-91
2021/11/11 01:20:49;;;;;;;45.65;26.30;;;;;;;;;;4909364;29;20020;-90
2021/11/11 01:23:18;;;;;;;50.08;28.77;;;;;;;;;;4936437;29;20028;-90
2021/11/11 01:25:44;;;;;;;53.85;30.48;;;;;;;;;;4933926;29;21934;-89
2021/11/11 01:28:10;;;;;;;50.13;28.70;;;;;;;;;;4902987;29;20029;-90
2021/11/11 01:30:41;;;;;;;54.65;28.77;;;;;;;;;;4898220;29;20052;-89
2021/11/11 01:33:08;;;;;;;50.90;28.88;;;;;;;;;;4898509;29;20031;-90
2021/11/11 01:35:34;;;;;;;52.47;29.40;;;;;;;;;;4899850;29;20073;-90
2021/11/11 01:38:00;;;;;;;56.75;30.42;;;;;;;;;;4908030;29;20394;-90
2021/11/11 01:40:26;;;;;;;54.85;29.83;;;;;;;;;;4898175;29;20028;-89
2021/11/11 01:42:55;;;;;;;57.15;31.52;;;;;;;;;;4899872;29;20071;-90
2021/11/11 01:45:25;;;;;;;58.40;32.63;;;;;;;;;;4898209;29;20044;-89
2021/11/11 01:47:52;;;;;;;58.00;29.27;;;;;;;;;;4919564;29;20086;-89
2021/11/11 01:50:18;;;;;;;57.50;30.90;;;;;;;;;;4919975;29;20394;-89
2021/11/11 01:52:46;;;;;;;58.63;30.20;;;;;;;;;;4905406;29;20501;-90
2021/11/11 01:55:12;;;;;;;58.90;30.85;;;;;;;;;;4903058;29;20055;-89
2021/11/11 01:57:39;;;;;;;57.03;29.83;;;;;;;;;;4903259;29;20039;-89
2021/11/11 02:00:08;;;;;;;55.90;30.33;;;;;;;;;;4899545;29;20033;-89
2021/11/11 02:02:34;;;;;;;55.17;30.52;;;;;;;;;;4898362;29;20090;-89
2021/11/11 02:05:00;;;;;;;56.00;29.92;;;;;;;;;;4884153;29;20084;-89
2021/11/11 02:07:26;;;;;;;58.97;30.23;;;;;;;;;;4906349;29;20029;-88
2021/11/11 02:09:52;;;;;;;52.42;28.55;;;;;;;;;;4883124;29;20096;-89
2021/11/11 02:12:18;;;;;;;57.47;30.08;;;;;;;;;;4897991;29;20414;-90
2021/11/11 02:14:44;;;;;;;54.28;29.02;;;;;;;;;;4882410;29;20036;-90
2021/11/11 02:17:11;;;;;;;53.53;30.00;;;;;;;;;;4899209;29;20071;-89
2021/11/11 02:19:37;;;;;;;49.83;28.80;;;;;;;;;;4935513;29;20477;-90
2021/11/11 02:22:04;;;;;;;55.55;28.27;;;;;;;;;;4918056;29;20502;-89
2021/11/11 02:24:33;;;;;;;58.10;29.23;;;;;;;;;;4900503;29;20470;-89
2021/11/11 02:26:59;;;;;;;53.13;27.98;;;;;;;;;;4902613;29;20031;-90
2021/11/11 02:29:26;;;;;;;52.63;28.27;;;;;;;;;;4905278;29;20057;-90
2021/11/11 02:31:52;;;;;;;49.72;27.08;;;;;;;;;;4898835;29;20025;-89
2021/11/11 02:34:19;;;;;;;53.33;28.65;;;;;;;;;;4897391;29;20455;-90
2021/11/11 02:36:52;;;;;;;54.47;28.80;;;;;;;;;;4882093;29;20036;-90
2021/11/11 02:39:18;;;;;;;54.03;27.67;;;;;;;;;;4897815;29;20043;-90
2021/11/11 02:41:48;;;;;;;52.38;27.38;;;;;;;;;;4904500;29;20062;-89
2021/11/11 02:44:15;;;;;;;49.20;28.35;;;;;;;;;;4901296;29;20028;-88
2021/11/11 02:46:41;;;;;;;47.55;26.83;;;;;;;;;;4888698;29;20029;-90
2021/11/11 02:49:07;;;;;;;48.08;26.02;;;;;;;;;;4906710;29;20095;-91
2021/11/11 02:51:33;;;;;;;48.65;27.15;;;;;;;;;;4917412;29;20036;-90
2021/11/11 02:53:59;;;;;;;50.72;26.55;;;;;;;;;;4916397;29;20025;-91
2021/11/11 02:56:26;;;;;;;50.08;25.67;;;;;;;;;;4907955;29;20029;-90
2021/11/11 02:58:52;;;;;;;49.65;27.30;;;;;;;;;;4897533;29;20036;-89
2021/11/11 03:01:19;;;;;;;50.38;26.00;;;;;;;;;;4898588;29;20081;-90
2021/11/11 03:03:46;;;;;;;47.63;26.85;;;;;;;;;;4898265;29;20041;-89
2021/11/11 03:06:12;;;;;;;50.03;27.05;;;;;;;;;;4883045;29;20032;-90
2021/11/11 03:08:38;;;;;;;50.72;26.90;;;;;;;;;;4892723;29;20032;-91
2021/11/11 03:11:05;;;;;;;52.17;27.20;;;;;;;;;;4914403;29;20029;-92
2021/11/11 03:13:31;;;;;;;50.08;25.10;;;;;;;;;;4917568;29;20036;-91
2021/11/11 03:15:58;;;;;;;45.08;25.33;;;;;;;;;;4916668;29;20031;-91
2021/11/11 03:18:25;;;;;;;51.72;25.95;;;;;;;;;;4916608;29;20032;-90
2021/11/11 03:20:51;;;;;;;43.22;24.10;;;;;;;;;;4916933;29;20024;-90
2021/11/11 03:23:18;;;;;;;45.70;26.30;;;;;;;;;;4917434;29;20448;-91
2021/11/11 03:25:45;;;;;;;50.05;26.50;;;;;;;;;;4914889;29;20458;-92
2021/11/11 03:28:11;;;;;;;43.78;23.60;;;;;;;;;;4929385;29;20437;-91
2021/11/11 03:30:37;;;;;;;46.78;26.08;;;;;;;;;;4934633;29;20050;-90
2021/11/11 03:33:05;;;;;;;49.40;26.80;;;;;;;;;;4935028;29;20024;-91
2021/11/11 03:35:31;;;;;;;50.75;24.90;;;;;;;;;;4923392;29;20152;-90
2021/11/11 03:38:00;;;;;;;47.83;25.35;;;;;;;;;;4920040;29;20040;-91
2021/11/11 03:40:28;;;;;;;48.83;25.58;;;;;;;;;;4918803;29;20035;-91
2021/11/11 03:42:56;;;;;;;45.05;24.27;;;;;;;;;;4918246;29;20149;-88
2021/11/11 03:45:23;;;;;;;43.28;24.30;;;;;;;;;;4920368;29;20020;-90
2021/11/11 03:47:50;;;;;;;46.95;25.83;;;;;;;;;;4924375;29;20086;-90
2021/11/11 03:50:17;;;;;;;42.03;23.55;;;;;;;;;;4939239;29;20034;-91
2021/11/11 03:52:43;;;;;;;47.90;25.52;;;;;;;;;;4938406;29;20035;-90
2021/11/11 03:55:11;;;;;;;46.00;25.30;;;;;;;;;;4938226;29;20023;-91
2021/11/11 03:57:37;;;;;;;46.97;25.17;;;;;;;;;;4904546;29;20043;-89
2021/11/11 04:00:05;;;;;;;45.35;24.20;;;;;;;;;;4900833;29;20119;-90
2021/11/11 04:02:31;;;;;;;47.33;25.35;;;;;;;;;;4900311;29;20508;-91
2021/11/11 04:04:57;;;;;;;47.97;24.98;;;;;;;;;;4919598;29;20036;-90
2021/11/11 04:07:23;;;;;;;47.92;25.42;;;;;;;;;;4920505;29;20040;-91
2021/11/11 04:09:49;;;;;;;44.30;25.13;;;;;;;;;;4918434;29;20036;-90
2021/11/11 04:12:15;;;;;;;48.35;25.63;;;;;;;;;;4905717;29;20475;-91
2021/11/11 04:14:45;;;;;;;46.40;25.83;;;;;;;;;;4901859;29;20064;-93
2021/11/11 04:17:11;;;;;;;46.25;24.48;;;;;;;;;;4913556;29;20024;-91
2021/11/11 04:19:37;;;;;;;45.03;26.40;;;;;;;;;;4920560;29;20127;-91
2021/11/11 04:22:03;;;;;;;38.55;23.02;;;;;;;;;;4919196;29;20024;-92
2021/11/11 04:24:31;;;;;;;45.78;24.83;;;;;;;;;;4902730;29;20454;-90
2021/11/11 04:27:02;;;;;;;46.72;24.30;;;;;;;;;;4925457;29;20103;-91
2021/11/11 04:29:31;;;;;;;45.78;26.52;;;;;;;;;;4940402;29;20474;-90
2021/11/11 04:31:59;;;;;;;48.33;25.27;;;;;;;;;;4930389;29;20044;-91
2021/11/11 04:34:28;;;;;;;47.85;24.27;;;;;;;;;;4907718;29;20054;-91
2021/11/11 05:01:09;;;;;;;51.80;27.55;;;;;;;;;;4930166;29;20036;-91
2021/11/11 05:03:34;;;;;;;47.97;25.88;;;;;;;;;;4923052;29;20028;-91
2021/11/11 05:06:01;;;;;;;49.67;26.35;;;;;;;;;;4917288;29;20123;-89
2021/11/11 05:08:28;;;;;;;47.42;26.25;;;;;;;;;;4919192;29;20036;-91
2021/11/11 05:10:54;;;;;;;53.13;27.85;;;;;;;;;;4914691;29;20083;-90
2021/11/11 05:13:21;;;;;;;46.95;27.45;;;;;;;;;;4905412;29;20486;-90
2021/11/11 05:15:47;;;;;;;49.65;25.63;;;;;;;;;;4921328;29;20040;-90
2021/11/11 05:18:13;;;;;;;48.75;26.40;;;;;;;;;;4916271;29;20024;-91
2021/11/11 05:20:40;;;;;;;45.47;26.23;;;;;;;;;;4913163;29;20028;-89
2021/11/11 05:23:06;;;;;;;45.67;27.67;;;;;;;;;;4901968;29;20071;-91
2021/11/11 05:25:32;;;;;;;46.15;26.30;;;;;;;;;;4902015;29;20051;-90
2021/11/11 05:27:59;;;;;;;52.30;26.95;;;;;;;;;;4919745;29;20045;-91
2021/11/11 05:30:27;;;;;;;49.38;26.40;;;;;;;;;;4903294;29;20049;-91
2021/11/11 05:32:53;;;;;;;47.33;26.30;;;;;;;;;;4893504;29;20031;-92
2021/11/11 05:35:19;;;;;;;53.10;26.55;;;;;;;;;;4914036;29;20035;-90
2021/11/11 05:37:45;;;;;;;45.10;25.90;;;;;;;;;;4886810;29;20009;-91
2021/11/11 05:40:14;;;;;;;45.88;26.38;;;;;;;;;;4886348;29;20444;-92
2021/11/11 05:42:40;;;;;;;53.28;26.55;;;;;;;;;;4887263;29;20035;-91
2021/11/11 05:45:09;;;;;;;53.05;26.40;;;;;;;;;;4906617;29;20033;-91
2021/11/11 05:47:36;;;;;;;47.15;25.25;;;;;;;;;;4915103;29;20021;-90
2021/11/11 05:50:02;;;;;;;47.72;24.58;;;;;;;;;;4913923;29;20068;-91
2021/11/11 05:52:28;;;;;;;48.88;26.45;;;;;;;;;;4914220;29;20332;-91
2021/11/11 05:54:54;;;;;;;48.47;26.40;;;;;;;;;;4913190;29;20033;-91
2021/11/11 05:57:26;;;;;;;47.00;27.08;;;;;;;;;;4888512;29;20094;-91
2021/11/11 05:59:52;;;;;;;50.15;26.75;;;;;;;;;;4898679;29;20080;-90
2021/11/11 06:02:18;;;;;;;48.58;26.95;;;;;;;;;;4882956;29;20053;-91
2021/11/11 06:04:44;;;;;;;52.58;27.85;;;;;;;;;;4897513;29;20025;-91
2021/11/11 06:07:11;;;;;;;53.60;29.02;;;;;;;;;;4884555;29;20022;-90
2021/11/11 06:09:37;;;;;;;55.17;28.58;;;;;;;;;;4912030;29;20044;-91
2021/11/11 06:12:04;;;;;;;49.65;28.75;;;;;;;;;;4896801;29;20033;-90
2021/11/11 06:14:30;;;;;;;49.17;26.65;;;;;;;;;;4903914;29;20032;-91
2021/11/11 06:16:57;;;;;;;56.67;30.02;;;;;;;;;;4903893;29;20048;-90
2021/11/11 06:19:23;;;;;;;59.13;29.17;;;;;;;;;;4890754;29;20033;-88
2021/11/11 06:21:49;;;;;;;52.17;26.70;;;;;;;;;;4921243;29;20043;-92
2021/11/11 06:24:15;;;;;;;52.50;26.83;;;;;;;;;;4919727;29;20026;-89
2021/11/11 06:26:42;;;;;;;49.83;26.55;;;;;;;;;;4880830;29;20031;-90
2021/11/11 06:29:08;;;;;;;56.63;27.63;;;;;;;;;;4903384;29;20056;-90
2021/11/11 06:42:06;;;;;;;49.55;24.65;;;;;;;;;;4915875;29;20394;-89
2021/11/11 06:44:32;;;;;;;52.63;27.48;;;;;;;;;;4919963;29;20082;-89
2021/11/11 06:46:58;;;;;;;54.88;27.17;;;;;;;;;;4920403;29;20027;-91
2021/11/11 06:49:24;;;;;;;62.40;31.10;;;;;;;;;;4920059;29;20032;-89
2021/11/11 06:51:50;;;;;;;56.20;27.10;;;;;;;;;;4917014;29;20115;-92
2021/11/11 06:54:17;;;;;;;56.55;27.92;;;;;;;;;;4929976;29;20112;-90
2021/11/11 06:56:43;;;;;;;63.10;29.58;;;;;;;;;;4900686;29;20402;-89
2021/11/11 06:59:09;;;;;;;58.95;31.23;;;;;;;;;;4901656;29;20471;-90
2021/11/11 07:01:36;;;;;;;55.38;27.85;;;;;;;;;;4900369;29;20035;-89
2021/11/11 07:04:02;;;;;;;53.50;26.30;;;;;;;;;;4905354;29;20047;-91
2021/11/11 07:06:28;;;;;;;57.67;29.75;;;;;;;;;;4918705;29;20103;-89
2021/11/11 07:08:55;;;;;;;57.42;29.60;;;;;;;;;;4903335;29;20401;-89
2021/11/11 07:11:22;;;;;;;58.97;27.73;;;;;;;;;;4921466;29;20034;-89
2021/11/11 07:13:48;;;;;;;57.83;27.58;;;;;;;;;;4918881;29;20038;-89
2021/11/11 07:16:14;;;;;;;61.22;29.90;;;;;;;;;;4923182;29;20039;-91
2021/11/11 07:18:40;;;;;;;60.28;30.33;;;;;;;;;;4922904;29;20032;-92
2021/11/11 07:21:06;;;;;;;61.78;29.80;;;;;;;;;;4923109;29;20036;-90
2021/11/11 07:23:32;;;;;;;62.03;30.10;;;;;;;;;;4928280;29;20446;-88
2021/11/11 07:25:59;;;;;;;63.30;30.48;;;;;;;;;;4942184;29;20170;-89
2021/11/11 07:28:25;;;;;;;54.00;27.52;;;;;;;;;;4941692;29;20153;-89
2021/11/11 07:30:51;;;;;;;62.25;29.42;;;;;;;;;;4943105;29;20031;-91
2021/11/11 07:33:17;;;;;;;58.17;29.33;;;;;;;;;;4926258;29;20031;-90
2021/11/11 07:35:44;;;;;;;58.55;30.77;;;;;;;;;;4923652;29;20114;-89
2021/11/11 07:38:11;;;;;;;60.28;29.08;;;;;;;;;;4908441;29;20034;-88
2021/11/11 07:40:37;;;;;;;54.83;28.13;;;;;;;;;;4905669;29;20130;-90
2021/11/11 07:43:04;;;;;;;61.55;30.95;;;;;;;;;;4909114;29;20067;-88
2021/11/11 07:45:33;;;;;;;59.72;30.20;;;;;;;;;;4924294;29;20032;-91
2021/11/11 07:48:02;;;;;;;60.15;29.83;;;;;;;;;;4940720;29;20039;-89
2021/11/11 07:50:29;;;;;;;67.18;30.60;;;;;;;;;;4923134;29;20091;-89
2021/11/11 07:52:57;;;;;;;62.80;29.67;;;;;;;;;;4933361;29;20028;-88
2021/11/11 07:55:24;;;;;;;66.13;31.02;;;;;;;;;;4914736;29;20022;-91
2021/11/11 07:57:50;;;;;;;62.38;30.05;;;;;;;;;;4922485;29;20059;-91
2021/11/11 08:00:18;;;;;;;62.38;29.75;;;;;;;;;;4922895;29;20032;-90
2021/11/11 08:02:44;;;;;;;59.13;29.13;;;;;;;;;;4905688;29;20031;-90
2021/11/11 08:05:13;;;;;;;64.95;30.27;;;;;;;;;;4904784;29;20039;-88
2021/11/11 08:07:39;;;;;;;68.88;31.80;;;;;;;;;;4902597;29;20038;-91
2021/11/11 08:10:05;;;;;;;65.53;30.17;;;;;;;;;;4913350;29;20480;-88
2021/11/11 08:12:32;;;;;;;60.60;29.13;;;;;;;;;;4906714;29;20498;-89
2021/11/11 08:14:58;;;;;;;67.00;31.15;;;;;;;;;;4903078;29;20614;-88
2021/11/11 08:17:25;;;;;;;60.50;28.73;;;;;;;;;;4902918;29;20462;-89
2021/11/11 08:19:55;;;;;;;60.40;28.10;;;;;;;;;;4917936;29;20528;-90
2021/11/11 08:22:22;;;;;;;62.83;31.05;;;;;;;;;;4925730;29;20024;-91
2021/11/11 08:24:48;;;;;;;54.92;29.23;;;;;;;;;;4906246;29;20087;-89
2021/11/11 08:27:15;;;;;;;63.90;31.20;;;;;;;;;;4921877;29;20024;-89
2021/11/11 08:29:42;;;;;;;68.13;30.48;;;;;;;;;;4923679;29;20031;-88
2021/11/11 08:32:08;;;;;;;69.38;32.22;;;;;;;;;;4913403;29;20040;-90
2021/11/11 08:34:35;;;;;;;58.97;31.02;;;;;;;;;;4904106;29;20035;-90
2021/11/11 08:37:01;;;;;;;65.90;30.55;;;;;;;;;;4903760;29;20036;-91
2021/11/11 08:39:27;;;;;;;68.97;30.80;;;;;;;;;;4904064;29;20071;-91
2021/11/11 08:41:53;;;;;;;66.65;32.10;;;;;;;;;;4905692;29;20052;-90
2021/11/11 08:44:20;;;;;;;65.22;33.33;;;;;;;;;;4922158;29;20028;-89
2021/11/11 08:46:47;;;;;;;62.95;29.13;;;;;;;;;;4922010;29;20030;-88
2021/11/11 08:49:14;;;;;;;66.35;32.13;;;;;;;;;;4922109;29;20036;-90
2021/11/11 08:51:40;;;;;;;65.70;29.92;;;;;;;;;;4921224;29;20427;-89
2021/11/11 08:54:06;;;;;;;63.53;29.27;;;;;;;;;;4922212;29;20046;-90
2021/11/11 08:56:33;;;;;;;66.35;30.40;;;;;;;;;;4914193;29;20402;-89
2021/11/11 08:59:01;;;;;;;68.35;30.05;;;;;;;;;;4902538;29;20152;-90
2021/11/11 09:01:28;;;;;;;66.82;28.25;;;;;;;;;;4919585;29;20043;-87
2021/11/11 09:03:56;;;;;;;69.47;32.97;;;;;;;;;;4903318;29;20119;-90
2021/11/11 09:06:22;;;;;;;64.43;30.35;;;;;;;;;;4925167;29;20031;-88
2021/11/11 09:08:51;;;;;;;67.13;31.58;;;;;;;;;;4938906;29;20606;-90
2021/11/11 09:11:17;;;;;;;67.05;29.73;;;;;;;;;;4922176;29;20079;-88
2021/11/11 09:13:45;;;;;;;68.38;30.45;;;;;;;;;;4925594;29;20499;-89
2021/11/11 09:16:13;;;;;;;64.07;30.27;;;;;;;;;;4926431;29;20049;-89
2021/11/11 09:18:40;;;;;;;61.78;28.95;;;;;;;;;;4921441;29;20396;-89
2021/11/11 09:21:08;;;;;;;67.72;32.10;;;;;;;;;;4912423;29;20079;-90
2021/11/11 09:23:35;;;;;;;63.88;31.15;;;;;;;;;;4902883;29;20131;-91
2021/11/11 09:26:01;;;;;;;60.95;29.77;;;;;;;;;;4905481;29;20035;-92
2021/11/11 09:28:27;;;;;;;70.50;31.90;;;;;;;;;;4932551;29;20028;-91
2021/11/11 09:30:53;;;;;;;60.75;29.70;;;;;;;;;;4931453;29;20442;-90
2021/11/11 09:33:19;;;;;;;67.10;29.58;;;;;;;;;;4903704;29;20024;-92
2021/11/11 09:35:46;;;;;;;65.10;30.58;;;;;;;;;;4907303;29;20016;-94
2021/11/11 09:38:12;;;;;;;64.72;30.25;;;;;;;;;;4905698;29;20036;-92
2021/11/11 09:40:38;;;;;;;68.70;30.80;;;;;;;;;;4904443;29;20103;-93
2021/11/11 09:43:04;;;;;;;63.33;29.17;;;;;;;;;;4903784;29;20143;-93
2021/11/11 09:45:35;;;;;;;65.38;30.67;;;;;;;;;;4905551;29;20067;-93
2021/11/11 09:48:02;;;;;;;73.35;32.75;;;;;;;;;;4936384;29;20024;-92
2021/11/11 09:50:29;;;;;;;74.20;33.33;;;;;;;;;;4903152;29;20032;-92
2021/11/11 09:53:04;;;;;;;64.22;29.63;;;;;;;;;;4938289;29;20054;-91
2021/11/11 10:01:00;;;;;;;71.82;31.08;;;;;;;;;;4918782;29;20050;-90
2021/11/11 10:03:27;;;;;;;81.18;30.58;;;;;;;;;;4902242;29;20024;-91
2021/11/11 10:05:53;;;;;;;78.30;33.90;;;;;;;;;;4919760;29;20016;-91
2021/11/11 10:08:35;;;;;;;71.22;30.38;;;;;;;;;;4932979;29;20453;-91
2021/11/11 10:11:02;;;;;;;68.72;29.65;;;;;;;;;;4947352;29;20612;-92
2021/11/11 10:13:28;;;;;;;71.22;32.78;;;;;;;;;;4921560;29;20050;-91
2021/11/11 10:16:06;;;;;;;76.30;32.67;;;;;;;;;;4922379;29;20084;-92
2021/11/11 10:18:41;;;;;;;84.00;33.10;;;;;;;;;;4906520;29;20447;-91
2021/11/11 10:21:28;;;;;;;78.32;32.15;;;;;;;;;;4902829;29;20035;-91
2021/11/11 10:23:56;;;;;;;79.93;32.47;;;;;;;;;;4905505;29;20040;-91
2021/11/11 10:26:30;;;;;;;81.82;32.50;;;;;;;;;;4902593;29;20112;-91
2021/11/11 10:28:58;;;;;;;81.45;31.58;;;;;;;;;;4938661;29;20041;-92
2021/11/11 10:31:24;;;;;;;87.65;33.53;;;;;;;;;;4928013;29;20035;-93
2021/11/11 10:34:04;;;;;;;81.50;33.22;;;;;;;;;;4925090;29;20027;-94
2021/11/11 10:36:39;;;;;;;92.00;33.97;;;;;;;;;;4925948;29;20494;-91
2021/11/11 10:39:16;;;;;;;82.82;31.55;;;;;;;;;;4927902;29;20083;-91
2021/11/11 10:41:43;;;;;;;91.15;36.10;;;;;;;;;;4919192;29;20083;-91
2021/11/11 10:44:20;;;;;;;91.20;33.67;;;;;;;;;;4902674;29;20029;-92
2021/11/11 10:46:57;;;;;;;82.70;30.77;;;;;;;;;;4905005;29;20032;-92
2021/11/11 10:49:43;;;;;;;95.63;37.13;;;;;;;;;;4903132;29;20032;-93
2021/11/11 10:52:19;;;;;;;92.97;32.70;;;;;;;;;;4905127;29;20039;-92
2021/11/11 10:55:04;;;;;;;80.80;31.17;;;;;;;;;;4908101;29;20037;-92
2021/11/11 10:57:48;;;;;;;85.40;33.15;;;;;;;;;;4913617;29;20488;-91
2021/11/11 11:00:21;;;;;;;95.70;33.50;;;;;;;;;;4921332;29;20540;-91
2021/11/11 11:02:54;;;;;;;84.55;32.20;;;;;;;;;;4940833;29;20024;-92
2021/11/11 11:05:41;;;;;;;89.05;34.67;;;;;;;;;;4918614;29;20378;-91
2021/11/11 11:08:10;;;;;;;89.78;35.55;;;;;;;;;;4893586;29;20037;-91
2021/11/11 11:10:38;;;;;;;82.70;32.83;;;;;;;;;;4915183;29;20035;-90
2021/11/11 11:13:10;;;;;;;88.10;33.33;;;;;;;;;;4940492;29;20095;-92
2021/11/11 11:15:42;;;;;;;86.35;35.13;;;;;;;;;;4920868;29;20028;-91
2021/11/11 11:18:08;;;;;;;88.78;33.33;;;;;;;;;;4923760;29;20475;-91
2021/11/11 11:20:35;;;;;;;94.82;34.88;;;;;;;;;;4939317;29;20115;-91
2021/11/11 11:23:15;;;;;;;80.72;32.40;;;;;;;;;;4938430;29;20480;-91
2021/11/11 11:25:58;;;;;;;93.78;33.58;;;;;;;;;;4937682;29;20044;-91
2021/11/11 11:28:36;;;;;;;90.10;36.53;;;;;;;;;;4904982;29;20012;-92
2021/11/11 11:31:04;;;;;;;81.03;30.90;;;;;;;;;;4908381;29;20051;-94
2021/11/11 11:33:40;;;;;;;75.95;33.35;;;;;;;;;;4917397;29;20389;-91
2021/11/11 11:36:07;;;;;;;91.20;35.80;;;;;;;;;;4922413;29;20039;-93
2021/11/11 11:38:38;;;;;;;86.38;32.47;;;;;;;;;;4921500;29;20107;-93
2021/11/11 11:41:05;;;;;;;76.57;31.40;;;;;;;;;;4920324;29;20020;-92
2021/11/11 11:43:32;;;;;;;89.03;35.40;;;;;;;;;;4937837;29;20362;-91
2021/11/11 11:46:15;;;;;;;73.13;32.83;;;;;;;;;;4938209;29;20028;-91
2021/11/11 11:48:43;;;;;;;66.95;32.10;;;;;;;;;;4920023;29;20023;-91
2021/11/11 11:51:10;;;;;;;74.10;32.80;;;;;;;;;;4926041;29;20323;-87
2021/11/11 11:53:44;;;;;;;66.72;28.98;;;;;;;;;;4937838;29;20031;-87
2021/11/11 11:56:21;;;;;;;82.25;32.60;;;;;;;;;;4922324;29;20038;-87
2021/11/11 11:59:06;;;;;;;78.68;33.25;;;;;;;;;;4922983;29;20417;-88
2021/11/11 12:01:41;;;;;;;70.68;31.45;;;;;;;;;;4937870;29;20027;-86
2021/11/11 12:09:36;;;;;;;76.43;32.00;;;;;;;;;;4958410;29;20032;-86
2021/11/11 12:14:40;;;;;;;75.65;34.08;;;;;;;;;;4958229;29;20031;-86
2021/11/11 12:38:33;;;;;;;90.43;36.22;;;;;;;;;;4940235;29;20026;-86
2021/11/11 12:40:06;;;;;;;92.75;36.80;;;;;;;;;;4938233;29;20051;-87
2021/11/11 12:42:53;;;;;;;82.35;34.53;;;;;;;;;;4925144;29;20067;-87
2021/11/11 12:45:21;;;;;;;93.93;34.92;;;;;;;;;;4921245;29;20031;-86
2021/11/11 12:47:55;;;;;;;80.53;32.35;;;;;;;;;;4910018;29;20040;-87
2021/11/11 12:50:30;;;;;;;75.30;31.38;;;;;;;;;;4902221;29;20393;-88
2021/11/11 12:53:16;;;;;;;77.70;30.73;;;;;;;;;;4903801;29;20028;-87
2021/11/11 12:55:58;;;;;;;72.65;31.92;;;;;;;;;;4903536;29;20032;-87
2021/11/11 12:58:49;;;;;;;77.55;33.63;;;;;;;;;;4903511;29;20043;-87
2021/11/11 13:01:20;;;;;;;77.65;33.53;;;;;;;;;;4909232;29;20102;-86
2021/11/11 13:03:59;;;;;;;79.43;33.67;;;;;;;;;;4938857;29;20034;-85
2021/11/11 13:06:44;;;;;;;78.93;33.63;;;;;;;;;;4921572;29;20027;-85
2021/11/11 13:09:25;;;;;;;79.22;32.78;;;;;;;;;;4921117;29;20023;-86
2021/11/11 13:11:55;;;;;;;78.15;32.97;;;;;;;;;;4904527;29;20465;-86
2021/11/11 13:14:30;;;;;;;72.45;30.48;;;;;;;;;;4903581;29;20028;-87
2021/11/11 13:16:59;;;;;;;73.20;32.10;;;;;;;;;;4902752;29;20430;-86
2021/11/11 13:19:31;;;;;;;79.65;33.88;;;;;;;;;;4920021;29;20403;-87
2021/11/11 13:22:21;;;;;;;72.45;31.55;;;;;;;;;;4933002;29;20039;-87
2021/11/11 14:04:11;;;;;;;65.85;28.92;;;;;;;;;;4919465;29;20043;-87
2021/11/11 16:02:27;;;;;;;54.78;28.17;;;;;;;;;;4875463;29;20030;-96
2021/11/11 16:26:26;;;;;;;59.22;29.38;;;;;;;;;;4933872;29;20044;-96
2021/11/11 16:28:57;;;;;;;63.95;31.10;;;;;;;;;;4915085;29;20032;-96
2021/11/11 16:31:24;;;;;;;61.03;30.40;;;;;;;;;;4914384;29;20024;-96
2021/11/11 16:33:50;;;;;;;55.05;29.30;;;;;;;;;;4914102;29;20024;-96
2021/11/11 16:36:17;;;;;;;60.58;28.92;;;;;;;;;;4915916;29;20119;-96
2021/11/11 16:38:44;;;;;;;55.38;28.90;;;;;;;;;;4916292;29;20043;-96
2021/11/11 16:41:10;;;;;;;53.72;30.05;;;;;;;;;;4915031;29;20031;-96
2021/11/11 16:43:36;;;;;;;62.92;28.65;;;;;;;;;;4915201;29;20020;-96
2021/11/11 16:46:03;;;;;;;55.03;27.98;;;;;;;;;;4913792;29;20035;-96
2021/11/11 16:48:29;;;;;;;59.63;30.75;;;;;;;;;;4915048;29;20032;-96
2021/11/11 16:50:55;;;;;;;58.38;30.73;;;;;;;;;;4914312;29;20028;-96
2021/11/11 16:53:21;;;;;;;58.45;30.50;;;;;;;;;;4914428;29;20025;-96
2021/11/11 16:55:48;;;;;;;52.55;29.92;;;;;;;;;;4915380;29;20100;-96
2021/11/11 16:58:14;;;;;;;59.10;31.27;;;;;;;;;;4914415;29;20032;-96
2021/11/11 17:00:40;;;;;;;56.95;29.65;;;;;;;;;;4915375;29;20036;-96
2021/11/11 17:03:06;;;;;;;56.88;30.27;;;;;;;;;;4913884;29;20032;-96
2021/11/11 17:05:34;;;;;;;54.15;29.58;;;;;;;;;;4914954;29;20020;-96
2021/11/11 17:08:00;;;;;;;59.17;31.27;;;;;;;;;;4914926;29;20092;-96
2021/11/11 17:10:26;;;;;;;57.40;29.95;;;;;;;;;;4914442;29;20034;-96
2021/11/11 17:12:53;;;;;;;64.85;31.10;;;;;;;;;;4914691;29;20028;-96
2021/11/11 17:15:21;;;;;;;61.00;30.38;;;;;;;;;;4913631;29;20088;-96
2021/11/11 17:17:48;;;;;;;58.67;31.80;;;;;;;;;;4913988;29;20028;-96
2021/11/11 17:20:19;;;;;;;56.17;29.25;;;;;;;;;;4913336;29;20040;-96
2021/11/11 17:22:50;;;;;;;55.03;29.10;;;;;;;;;;4916242;29;20029;-96
2021/11/11 17:28:14;;;;;;;59.45;33.53;;;;;;;;;;4937530;29;20139;-96
2021/11/11 17:30:45;;;;;;;57.67;29.50;;;;;;;;;;4919970;29;20439;-96
2021/11/11 17:33:12;;;;;;;55.63;29.75;;;;;;;;;;4905636;29;20040;-96
2021/11/11 17:35:39;;;;;;;54.20;30.40;;;;;;;;;;4917208;29;20056;-96
2021/11/11 17:38:05;;;;;;;56.65;30.48;;;;;;;;;;4915899;29;20083;-96
2021/11/11 17:40:32;;;;;;;56.08;30.45;;;;;;;;;;4914408;29;20036;-96
2021/11/11 17:42:58;;;;;;;59.13;30.77;;;;;;;;;;4914092;29;20028;-96
2021/11/11 17:48:17;;;;;;;63.38;34.10;;;;;;;;;;4900344;29;20039;-96
2021/11/11 17:50:53;;;;;;;59.35;32.10;;;;;;;;;;4912787;29;20028;-96
2021/11/11 17:53:21;;;;;;;62.65;31.58;;;;;;;;;;4911336;29;20084;-96
2021/11/11 17:55:50;;;;;;;60.42;30.95;;;;;;;;;;4912396;29;20467;-96
2021/11/11 17:58:18;;;;;;;55.63;32.42;;;;;;;;;;4911728;29;20028;-96
2021/11/11 18:00:46;;;;;;;56.33;32.13;;;;;;;;;;4911664;29;20032;-96
2021/11/11 18:03:19;;;;;;;55.33;30.42;;;;;;;;;;4912125;29;20024;-96
2021/11/11 18:05:50;;;;;;;55.55;32.13;;;;;;;;;;4929319;29;20517;-96
2021/11/11 18:08:30;;;;;;;56.72;30.52;;;;;;;;;;4896689;29;20115;-96
2021/11/11 18:10:57;;;;;;;55.53;30.25;;;;;;;;;;4911924;29;20028;-96
2021/11/11 18:13:27;;;;;;;61.78;31.27;;;;;;;;;;4929614;29;20028;-96
2021/11/11 18:15:55;;;;;;;60.13;31.15;;;;;;;;;;4912954;29;20036;-96
2021/11/11 18:18:21;;;;;;;63.47;31.77;;;;;;;;;;4912770;29;20107;-96
2021/11/11 18:20:47;;;;;;;57.25;30.15;;;;;;;;;;4912578;29;20063;-96
2021/11/11 18:23:14;;;;;;;57.55;33.70;;;;;;;;;;4912622;29;20028;-96
2021/11/11 18:25:41;;;;;;;56.72;30.73;;;;;;;;;;4913888;29;20024;-96
2021/11/11 18:28:07;;;;;;;59.67;32.53;;;;;;;;;;4913588;29;20039;-96
2021/11/11 18:30:40;;;;;;;56.03;32.20;;;;;;;;;;4912987;29;20470;-96
2021/11/11 18:35:42;;;;;;;63.03;34.03;;;;;;;;;;4930312;29;20024;-96
2021/11/11 18:38:10;;;;;;;64.45;31.83;;;;;;;;;;4913601;29;20107;-96
2021/11/11 18:40:36;;;;;;;58.92;33.00;;;;;;;;;;4913541;29;20044;-96